Time;durP1;ratioP1;P1;durP2;ratioP2;P2;SDS_P1;SDS_P2;PMS_P1;PMS_P2;Temp;Humidity;BMP_temperature;BMP_pressure;BME280_temperature;BME280_humidity;BME280_pressure;Samples;Min_cycle;Max_cycle;Signal;HPM_P1;HPM_P2
2022/01/01 00:01:50;;;;;;;5.45;2.80;;;;;;;17.50;66.25;101680.19;21168821;28;20057;-71
2022/01/01 00:11:53;;;;;;;5.90;2.95;;;;;;;17.70;66.44;101737.06;21169684;28;20554;-71
2022/01/01 00:21:54;;;;;;;4.03;2.60;;;;;;;17.61;66.39;101752.06;21169830;28;20040;-73
2022/01/01 00:31:56;;;;;;;8.00;3.70;;;;;;;17.56;66.58;101762.34;21167539;28;20112;-72
2022/01/01 00:41:58;;;;;;;5.78;2.90;;;;;;;17.03;66.50;101689.91;21166391;27;20051;-72
2022/01/01 00:52:00;;;;;;;5.88;3.05;;;;;;;17.35;66.43;101772.84;21147909;28;20071;-71
2022/01/01 01:02:02;;;;;;;7.40;3.60;;;;;;;17.18;66.63;101752.53;21165529;28;20055;-71
2022/01/01 01:12:04;;;;;;;9.55;4.78;;;;;;;16.82;66.61;101698.53;21163592;28;20077;-71
2022/01/01 01:22:06;;;;;;;9.27;5.60;;;;;;;17.09;66.67;101764.81;21163356;27;20047;-71
2022/01/01 01:32:08;;;;;;;8.40;5.20;;;;;;;17.15;66.69;101769.75;21162765;28;20052;-71
2022/01/01 01:42:10;;;;;;;9.23;5.35;;;;;;;16.75;66.84;101714.25;21162176;28;20481;-71
2022/01/01 01:52:15;;;;;;;10.77;6.25;;;;;;;16.63;66.71;101702.53;21159158;28;20048;-71
2022/01/01 02:02:17;;;;;;;9.68;5.65;;;;;;;16.53;66.77;101669.19;21160193;28;20051;-71
2022/01/01 02:12:21;;;;;;;9.65;5.97;;;;;;;16.96;66.72;101767.47;21159973;28;20489;-71
2022/01/01 02:22:24;;;;;;;12.80;7.85;;;;;;;16.92;66.82;101779.41;21157406;28;20049;-71
2022/01/01 02:32:25;;;;;;;11.18;7.28;;;;;;;16.79;66.92;101769.53;21157062;28;20050;-71
2022/01/01 02:42:27;;;;;;;13.02;8.55;;;;;;;16.79;66.83;101784.78;21157443;28;20386;-71
2022/01/01 02:52:30;;;;;;;9.57;6.68;;;;;;;16.75;66.79;101799.41;21156940;28;20040;-71
2022/01/01 03:02:32;;;;;;;14.05;8.77;;;;;;;16.19;66.67;101714.53;21154760;28;20066;-71
2022/01/01 03:12:34;;;;;;;9.82;7.60;;;;;;;16.64;66.92;101778.69;21156197;28;20134;-71
2022/01/01 03:22:36;;;;;;;15.82;11.07;;;;;;;16.29;66.75;101744.34;21155720;28;20046;-71
2022/01/01 03:32:38;;;;;;;12.32;9.32;;;;;;;16.01;66.71;101727.41;21155329;28;20056;-71
2022/01/01 03:42:39;;;;;;;20.77;15.27;;;;;;;15.94;66.62;101708.16;21154653;28;20063;-71
2022/01/01 03:52:45;;;;;;;16.48;12.20;;;;;;;16.54;66.83;101816.09;21154443;28;20055;-71
2022/01/01 04:02:47;;;;;;;17.88;13.23;;;;;;;16.01;66.84;101748.88;21152805;28;20113;-71
2022/01/01 04:12:48;;;;;;;17.58;13.43;;;;;;;16.29;66.66;101801.59;21161968;28;20070;-71
2022/01/01 04:22:52;;;;;;;18.75;14.20;;;;;;;15.97;66.85;101752.75;21168501;28;20044;-71
2022/01/01 04:32:54;;;;;;;18.30;13.88;;;;;;;16.35;66.61;101844.22;21149524;28;20047;-71
2022/01/01 04:42:55;;;;;;;20.00;14.98;;;;;;;16.22;66.82;101808.38;21166889;28;20043;-71
2022/01/01 04:52:57;;;;;;;20.58;14.15;;;;;;;15.86;66.99;101748.91;21166080;28;20039;-71
2022/01/01 05:02:59;;;;;;;23.00;17.60;;;;;;;16.28;67.01;101801.72;21165207;28;20059;-71
2022/01/01 05:13:01;;;;;;;18.92;14.48;;;;;;;16.26;66.61;101817.09;21164381;28;20051;-71
2022/01/01 05:23:03;;;;;;;20.08;14.70;;;;;;;16.12;67.05;101807.25;21163350;28;20101;-71
2022/01/01 05:33:05;;;;;;;22.65;17.80;;;;;;;16.19;67.02;101852.44;21163907;28;20117;-71
2022/01/01 05:43:13;;;;;;;19.45;13.38;;;;;;;16.13;67.03;101838.53;21161612;28;20086;-71
2022/01/01 05:53:15;;;;;;;17.20;12.80;;;;;;;16.21;67.27;101842.44;21143974;28;20059;-71
2022/01/01 06:03:18;;;;;;;17.05;12.27;;;;;;;16.50;67.09;101852.19;21160278;28;20104;-71
2022/01/01 06:13:19;;;;;;;17.42;13.07;;;;;;;16.52;66.49;101797.34;21159284;28;20051;-73
2022/01/01 06:23:21;;;;;;;14.35;10.65;;;;;;;17.21;66.02;101866.16;21158705;28;20047;-72
2022/01/01 06:33:23;;;;;;;14.52;10.27;;;;;;;16.94;65.65;101796.31;21157619;28;20754;-72
2022/01/01 06:43:25;;;;;;;13.07;9.90;;;;;;;17.30;65.72;101834.22;21157213;28;20145;-72
2022/01/01 06:53:27;;;;;;;12.90;9.93;;;;;;;17.05;65.81;101782.13;21156707;28;20129;-72
2022/01/01 07:03:28;;;;;;;14.05;9.52;;;;;;;17.45;65.68;101840.31;21156115;28;20451;-72
2022/01/01 07:13:30;;;;;;;13.13;8.85;;;;;;;17.10;65.69;101774.59;21156130;28;20052;-71
2022/01/01 07:23:32;;;;;;;12.05;8.73;;;;;;;17.74;65.90;101881.31;21155409;28;20051;-72
2022/01/01 07:33:33;;;;;;;14.70;9.55;;;;;;;17.29;65.96;101802.88;21155468;28;20398;-73
2022/01/01 07:43:35;;;;;;;11.52;8.00;;;;;;;17.78;66.27;101892.69;21156767;28;20052;-72
2022/01/01 07:53:37;;;;;;;11.20;7.95;;;;;;;17.42;66.21;101817.19;21170679;28;20047;-71
2022/01/01 08:03:39;;;;;;;10.32;6.68;;;;;;;17.72;66.26;101877.00;21169896;28;20056;-72
2022/01/01 08:13:40;;;;;;;12.95;7.15;;;;;;;17.28;66.62;101788.56;21168221;28;20039;-73
2022/01/01 08:23:42;;;;;;;9.98;5.90;;;;;;;17.90;67.11;101891.81;21168638;28;20443;-71
2022/01/01 08:33:46;;;;;;;11.50;7.60;;;;;;;17.96;67.61;101898.59;21166674;28;20509;-71
2022/01/01 08:43:47;;;;;;;11.73;7.60;;;;;;;17.79;68.37;101878.25;21165424;28;20074;-73
2022/01/01 08:53:49;;;;;;;12.45;8.07;;;;;;;17.90;68.16;101897.22;21147503;28;20568;-71
2022/01/01 09:03:51;;;;;;;10.70;7.32;;;;;;;16.93;68.60;101720.16;21163917;28;20058;-76
2022/01/01 09:13:53;;;;;;;10.70;6.97;;;;;;;17.35;68.98;101794.38;21164953;28;20051;-76
2022/01/01 09:23:55;;;;;;;11.32;8.10;;;;;;;17.03;68.40;101776.00;21164416;28;20097;-77
2022/01/01 09:33:56;;;;;;;10.68;6.82;;;;;;;17.08;68.46;101789.97;21163160;28;20058;-77
2022/01/01 09:43:59;;;;;;;12.45;7.07;;;;;;;17.11;68.39;101797.84;21161898;28;20124;-77
2022/01/01 09:54:00;;;;;;;10.63;7.75;;;;;;;17.52;68.60;101884.69;21143014;28;20081;-77
2022/01/01 10:04:11;;;;;;;8.95;6.35;;;;;;;17.39;68.50;101861.31;21160471;28;20051;-77
2022/01/01 10:14:13;;;;;;;8.77;6.32;;;;;;;16.94;68.49;101764.91;21141808;28;20043;-76
2022/01/01 10:24:19;;;;;;;10.27;6.18;;;;;;;16.94;68.36;101743.38;21140801;28;20032;-76
2022/01/01 10:34:21;;;;;;;;;;;;;;;17.41;68.37;101837.00;21158984;28;20138;-76
2022/01/01 10:44:29;;;;;;;9.85;5.88;;;;;;;16.76;68.20;101744.66;21157531;28;20007;-77
2022/01/01 10:54:31;;;;;;;10.00;5.60;;;;;;;17.29;68.02;101811.81;21157162;28;20548;-76
2022/01/01 11:04:33;;;;;;;9.00;5.32;;;;;;;17.38;68.02;101818.38;21138655;28;20158;-76
2022/01/01 11:14:35;;;;;;;6.63;4.53;;;;;;;17.35;67.75;101815.91;21138170;28;20059;-76
2022/01/01 11:24:40;;;;;;;7.00;4.60;;;;;;;17.41;67.80;101839.69;21152015;28;20043;-74
2022/01/01 11:34:44;;;;;;;6.67;4.67;;;;;;;17.34;67.81;101804.25;21137761;28;20138;-78
2022/01/01 11:44:53;;;;;;;6.80;4.57;;;;;;;16.97;67.94;101755.75;21153684;28;20493;-80
2022/01/01 11:55:04;;;;;;;8.35;4.57;;;;;;;16.99;68.26;101740.38;21172381;28;20096;-78
2022/01/01 12:05:11;;;;;;;5.85;4.00;;;;;;;17.43;68.42;101807.25;21169842;28;20517;-81
2022/01/01 12:15:19;;;;;;;6.28;4.15;;;;;;;17.48;68.57;101794.34;21169721;28;20058;-81
2022/01/01 12:25:27;;;;;;;6.25;4.00;;;;;;;17.06;68.84;101705.84;21150503;28;20089;-81
2022/01/01 12:35:49;;;;;;;6.88;4.45;;;;;;;17.49;68.58;101759.22;21167254;28;20059;-81
2022/01/01 12:45:52;;;;;;;5.30;3.85;;;;;;;17.24;68.60;101717.97;21167895;28;20101;-81
2022/01/01 12:55:59;;;;;;;7.82;3.90;;;;;;;17.00;68.46;101671.31;21132196;28;20043;-80
2022/01/01 13:06:00;;;;;;;5.38;3.63;;;;;;;17.30;68.25;101715.78;21165070;28;20485;-81
2022/01/01 13:16:02;;;;;;;5.30;3.63;;;;;;;16.88;68.27;101620.09;21164355;28;20048;-81
2022/01/01 13:26:05;;;;;;;5.13;3.50;;;;;;;16.96;68.23;101633.84;21145406;28;20097;-81
2022/01/01 13:36:07;;;;;;;5.28;3.00;;;;;;;17.36;68.06;101704.56;21144819;28;20047;-82
2022/01/01 13:46:13;;;;;;;4.80;3.03;;;;;;;17.47;68.01;101719.94;21142806;28;20104;-82
2022/01/01 13:56:19;;;;;;;5.65;3.55;;;;;;;17.03;67.89;101638.81;21143479;28;20035;-79
2022/01/01 14:06:26;;;;;;;4.45;2.58;;;;;;;16.99;67.74;101600.50;21142659;28;20044;-80
2022/01/01 14:16:30;;;;;;;4.35;2.60;;;;;;;17.43;67.65;101689.69;21143169;28;20048;-79
2022/01/01 14:26:40;;;;;;;4.60;2.87;;;;;;;17.25;67.44;101647.03;21141178;28;20061;-79
2022/01/01 14:36:46;;;;;;;3.65;2.40;;;;;;;17.51;67.55;101692.66;21158173;28;20057;-81
2022/01/01 14:46:59;;;;;;;4.65;2.72;;;;;;;16.96;67.97;101593.50;21139392;28;20047;-80
2022/01/01 14:57:33;;;;;;;3.75;2.60;;;;;;;17.54;67.62;101672.75;21138678;28;20051;-81
2022/01/01 15:07:39;;;;;;;5.43;2.88;;;;;;;17.47;67.38;101679.56;21110271;28;20538;-80
2022/01/01 15:17:43;;;;;;;3.78;2.28;;;;;;;17.10;67.41;101613.16;21138319;28;20058;-80
2022/01/01 15:27:45;;;;;;;3.85;2.17;;;;;;;17.25;67.35;101630.00;21137543;28;20051;-80
2022/01/01 15:48:19;;;;;;;3.25;2.28;;;;;;;16.64;67.05;101509.84;21111265;28;20040;-82
2022/01/01 15:58:22;;;;;;;3.28;2.20;;;;;;;17.52;67.23;101656.69;21154656;28;20050;-76
2022/01/01 16:08:29;;;;;;;4.25;2.05;;;;;;;17.48;67.26;101630.97;21143931;28;20047;-76
2022/01/01 16:18:51;;;;;;;2.72;2.00;;;;;;;16.64;67.17;101461.44;21169168;28;20043;-76
2022/01/01 16:28:53;;;;;;;3.03;2.05;;;;;;;17.14;67.05;101533.94;21150173;28;20055;-76
2022/01/01 16:38:57;;;;;;;3.45;2.20;;;;;;;17.54;67.11;101565.91;21167486;28;20056;-76
2022/01/01 16:49:12;;;;;;;2.38;1.88;;;;;;;17.59;66.81;101565.56;21167043;28;20051;-76
2022/01/01 16:59:17;;;;;;;3.97;2.20;;;;;;;17.13;66.81;101501.78;21165942;28;20116;-76
2022/01/01 17:09:24;;;;;;;5.23;2.20;;;;;;;17.59;66.69;101564.69;21147030;28;20421;-76
2022/01/01 17:19:41;;;;;;;2.65;1.83;;;;;;;17.05;66.52;101480.84;21165942;28;20051;-76
2022/01/01 17:29:46;;;;;;;2.05;1.73;;;;;;;17.59;66.50;101544.00;21145630;28;20059;-76
2022/01/01 17:40:02;;;;;;;2.88;2.00;;;;;;;17.24;66.63;101465.03;21162798;28;20047;-76
2022/01/01 17:50:19;;;;;;;1.90;1.48;;;;;;;17.58;66.27;101525.28;21114351;28;20043;-76
2022/01/01 18:00:21;;;;;;;2.35;1.67;;;;;;;17.61;66.39;101546.56;21128021;28;20043;-79
2022/01/01 18:10:29;;;;;;;2.22;1.50;;;;;;;17.39;66.43;101483.63;21160243;28;20101;-77
2022/01/01 18:20:36;;;;;;;3.78;1.70;;;;;;;17.16;66.23;101429.75;21141711;28;20138;-77
2022/01/01 18:30:38;;;;;;;2.25;1.60;;;;;;;17.64;66.22;101487.09;21141289;28;20404;-77
2022/01/01 18:40:42;;;;;;;3.13;1.70;;;;;;;17.09;66.05;101374.72;21158311;28;20164;-77
2022/01/01 18:51:04;;;;;;;3.20;1.73;;;;;;;17.62;66.04;101484.53;21139115;28;20062;-76
2022/01/01 19:01:06;;;;;;;2.53;1.55;;;;;;;16.93;66.11;101365.13;21142164;28;20056;-76
2022/01/01 19:11:16;;;;;;;2.88;1.60;;;;;;;17.14;65.98;101359.06;21156192;28;20086;-77
2022/01/01 19:21:19;;;;;;;2.03;1.30;;;;;;;17.17;65.92;101339.16;21138329;28;20039;-76
2022/01/01 19:31:22;;;;;;;3.22;1.85;;;;;;;17.13;66.02;101370.81;21155674;28;20403;-77
2022/01/01 19:41:52;;;;;;;2.88;1.80;;;;;;;17.04;65.93;101355.38;21161997;27;20534;-77
2022/01/01 19:51:53;;;;;;;2.72;1.80;;;;;;;17.62;65.91;101429.81;21137091;28;20084;-78
2022/01/01 20:01:55;;;;;;;1.67;1.50;;;;;;;17.51;65.79;101401.91;21119291;28;20062;-77
2022/01/01 20:11:59;;;;;;;2.88;1.52;;;;;;;17.61;65.79;101414.66;21169946;28;20048;-77
2022/01/01 20:22:01;;;;;;;2.45;1.92;;;;;;;17.61;65.70;101438.88;21150908;28;20044;-77
2022/01/01 20:32:03;;;;;;;3.00;1.58;;;;;;;17.58;65.65;101455.28;21133247;28;20046;-78
2022/01/01 20:42:06;;;;;;;3.13;1.67;;;;;;;17.57;65.49;101442.78;21167356;28;20095;-77
2022/01/01 20:52:08;;;;;;;2.20;1.23;;;;;;;17.59;65.26;101468.63;21165822;28;20044;-78
2022/01/01 21:02:19;;;;;;;2.15;1.60;;;;;;;17.46;65.46;101424.81;21147524;28;20054;-77
2022/01/01 21:12:22;;;;;;;1.80;1.50;;;;;;;17.39;65.46;101424.44;21165803;28;20082;-78
2022/01/01 21:22:24;;;;;;;2.35;1.50;;;;;;;17.48;65.28;101444.38;21164144;28;20047;-77
2022/01/01 21:32:26;;;;;;;1.95;1.65;;;;;;;17.55;65.37;101440.22;21163700;28;20480;-77
2022/01/01 21:42:27;;;;;;;1.75;1.48;;;;;;;17.11;65.25;101345.84;21162424;28;20040;-76
2022/01/01 21:52:29;;;;;;;2.42;1.55;;;;;;;17.58;65.38;101386.16;21161715;28;20104;-77
2022/01/01 22:02:31;;;;;;;1.83;1.30;;;;;;;17.52;65.41;101357.03;21159591;28;20055;-76
2022/01/01 22:12:35;;;;;;;1.70;1.27;;;;;;;17.13;65.13;101295.47;21160254;28;20043;-76
2022/01/01 22:22:36;;;;;;;2.85;1.20;;;;;;;17.10;65.42;101268.81;21141183;28;20507;-76
2022/01/01 22:32:38;;;;;;;1.33;1.15;;;;;;;16.99;65.25;101234.69;21158675;28;20546;-76
2022/01/01 22:42:40;;;;;;;2.55;1.27;;;;;;;17.60;65.26;101345.63;21157920;28;20244;-76
2022/01/01 22:52:42;;;;;;;1.50;1.40;;;;;;;17.01;65.30;101256.09;21157324;28;20093;-76
2022/01/01 23:02:43;;;;;;;2.95;1.20;;;;;;;17.06;65.10;101237.75;21156416;28;20058;-76
2022/01/01 23:12:45;;;;;;;1.50;1.40;;;;;;;17.61;64.99;101293.50;21156375;28;20106;-76
2022/01/01 23:22:48;;;;;;;2.47;1.60;;;;;;;17.19;65.14;101214.28;21155756;28;20052;-76
2022/01/01 23:32:53;;;;;;;1.80;1.10;;;;;;;17.12;65.13;101201.47;21137657;28;20058;-76
2022/01/01 23:42:55;;;;;;;2.25;1.30;;;;;;;17.50;65.00;101257.53;21120125;28;20043;-76
2022/01/01 23:52:58;;;;;;;1.73;1.20;;;;;;;17.16;64.90;101201.06;21154837;28;20493;-76
